sensor_id;sensor_type;location;lat;lon;timestamp;P1;durP1;ratioP1;P2;durP2;ratioP2
22490;SDS011;11412;50.802;4.350;2022-10-20T00:01:54;13.18;;;9.93;;
22490;SDS011;11412;50.802;4.350;2022-10-20T00:04:20;17.10;;;10.43;;
22490;SDS011;11412;50.802;4.350;2022-10-20T00:06:45;14.90;;;9.70;;
22490;SDS011;11412;50.802;4.350;2022-10-20T00:09:11;11.82;;;9.55;;
22490;SDS011;11412;50.802;4.350;2022-10-20T00:11:37;12.52;;;9.63;;
22490;SDS011;11412;50.802;4.350;2022-10-20T00:14:03;14.65;;;10.13;;
22490;SDS011;11412;50.802;4.350;2022-10-20T00:16:30;16.45;;;10.38;;
22490;SDS011;11412;50.802;4.350;2022-10-20T00:18:58;14.88;;;9.73;;
22490;SDS011;11412;50.802;4.350;2022-10-20T00:21:25;13.05;;;10.23;;
22490;SDS011;11412;50.802;4.350;2022-10-20T00:23:52;13.45;;;9.63;;
22490;SDS011;11412;50.802;4.350;2022-10-20T00:26:22;16.27;;;10.23;;
22490;SDS011;11412;50.802;4.350;2022-10-20T00:28:49;12.63;;;9.32;;
22490;SDS011;11412;50.802;4.350;2022-10-20T00:31:16;12.55;;;9.18;;
22490;SDS011;11412;50.802;4.350;2022-10-20T00:33:42;11.82;;;9.05;;
22490;SDS011;11412;50.802;4.350;2022-10-20T00:36:10;10.93;;;9.35;;
22490;SDS011;11412;50.802;4.350;2022-10-20T00:38:38;12.48;;;9.35;;
22490;SDS011;11412;50.802;4.350;2022-10-20T00:41:04;11.95;;;9.30;;
22490;SDS011;11412;50.802;4.350;2022-10-20T00:46:13;14.10;;;9.10;;
22490;SDS011;11412;50.802;4.350;2022-10-20T00:48:45;11.18;;;8.70;;
22490;SDS011;11412;50.802;4.350;2022-10-20T00:51:19;20.15;;;10.10;;
22490;SDS011;11412;50.802;4.350;2022-10-20T00:53:47;16.88;;;10.32;;
22490;SDS011;11412;50.802;4.350;2022-10-20T00:56:17;11.13;;;9.23;;
22490;SDS011;11412;50.802;4.350;2022-10-20T00:58:44;11.45;;;9.43;;
22490;SDS011;11412;50.802;4.350;2022-10-20T01:01:10;17.58;;;9.60;;
22490;SDS011;11412;50.802;4.350;2022-10-20T01:03:41;13.48;;;9.38;;
22490;SDS011;11412;50.802;4.350;2022-10-20T01:06:11;13.15;;;9.63;;
22490;SDS011;11412;50.802;4.350;2022-10-20T01:08:37;11.98;;;9.73;;
22490;SDS011;11412;50.802;4.350;2022-10-20T01:13:46;12.07;;;9.75;;
22490;SDS011;11412;50.802;4.350;2022-10-20T01:28:01;12.45;;;9.52;;
22490;SDS011;11412;50.802;4.350;2022-10-20T01:30:40;14.15;;;10.23;;
22490;SDS011;11412;50.802;4.350;2022-10-20T01:43:40;13.02;;;9.35;;
22490;SDS011;11412;50.802;4.350;2022-10-20T01:46:09;15.93;;;10.13;;
22490;SDS011;11412;50.802;4.350;2022-10-20T01:48:36;13.05;;;8.95;;
22490;SDS011;11412;50.802;4.350;2022-10-20T01:51:04;12.68;;;9.00;;
22490;SDS011;11412;50.802;4.350;2022-10-20T01:53:30;16.63;;;9.32;;
22490;SDS011;11412;50.802;4.350;2022-10-20T01:55:56;15.43;;;9.25;;
22490;SDS011;11412;50.802;4.350;2022-10-20T02:00:53;11.80;;;9.35;;
22490;SDS011;11412;50.802;4.350;2022-10-20T02:08:47;12.20;;;9.23;;
22490;SDS011;11412;50.802;4.350;2022-10-20T02:14:09;12.52;;;9.90;;
22490;SDS011;11412;50.802;4.350;2022-10-20T02:16:38;12.98;;;9.50;;
22490;SDS011;11412;50.802;4.350;2022-10-20T02:19:09;14.02;;;9.65;;
22490;SDS011;11412;50.802;4.350;2022-10-20T02:21:37;12.70;;;9.75;;
22490;SDS011;11412;50.802;4.350;2022-10-20T02:24:03;14.52;;;9.00;;
22490;SDS011;11412;50.802;4.350;2022-10-20T02:26:31;11.85;;;9.88;;
22490;SDS011;11412;50.802;4.350;2022-10-20T02:29:00;14.65;;;9.45;;
22490;SDS011;11412;50.802;4.350;2022-10-20T02:31:33;15.02;;;10.18;;
22490;SDS011;11412;50.802;4.350;2022-10-20T02:33:59;12.43;;;10.15;;
22490;SDS011;11412;50.802;4.350;2022-10-20T02:36:26;11.80;;;8.95;;
22490;SDS011;11412;50.802;4.350;2022-10-20T02:38:53;13.57;;;9.50;;
22490;SDS011;11412;50.802;4.350;2022-10-20T02:41:19;17.25;;;10.55;;
22490;SDS011;11412;50.802;4.350;2022-10-20T02:43:45;13.48;;;9.00;;
22490;SDS011;11412;50.802;4.350;2022-10-20T02:46:10;12.05;;;9.05;;
22490;SDS011;11412;50.802;4.350;2022-10-20T02:48:36;12.30;;;9.95;;
22490;SDS011;11412;50.802;4.350;2022-10-20T02:51:03;11.23;;;8.30;;
22490;SDS011;11412;50.802;4.350;2022-10-20T02:53:30;13.57;;;10.02;;
22490;SDS011;11412;50.802;4.350;2022-10-20T02:55:56;12.98;;;9.32;;
22490;SDS011;11412;50.802;4.350;2022-10-20T02:58:22;9.40;;;8.30;;
22490;SDS011;11412;50.802;4.350;2022-10-20T03:00:49;11.45;;;8.63;;
22490;SDS011;11412;50.802;4.350;2022-10-20T03:03:15;9.80;;;8.80;;
22490;SDS011;11412;50.802;4.350;2022-10-20T03:05:41;11.20;;;8.57;;
22490;SDS011;11412;50.802;4.350;2022-10-20T03:08:08;9.70;;;8.60;;
22490;SDS011;11412;50.802;4.350;2022-10-20T03:10:35;11.30;;;8.35;;
22490;SDS011;11412;50.802;4.350;2022-10-20T03:13:01;10.52;;;8.75;;
22490;SDS011;11412;50.802;4.350;2022-10-20T03:15:27;12.18;;;8.80;;
22490;SDS011;11412;50.802;4.350;2022-10-20T03:17:53;9.85;;;8.60;;
22490;SDS011;11412;50.802;4.350;2022-10-20T03:20:19;12.18;;;8.73;;
22490;SDS011;11412;50.802;4.350;2022-10-20T03:22:44;14.88;;;7.70;;
22490;SDS011;11412;50.802;4.350;2022-10-20T03:25:10;13.00;;;8.65;;
22490;SDS011;11412;50.802;4.350;2022-10-20T03:27:36;9.80;;;7.82;;
22490;SDS011;11412;50.802;4.350;2022-10-20T03:30:01;10.77;;;7.90;;
22490;SDS011;11412;50.802;4.350;2022-10-20T03:32:27;11.90;;;7.78;;
22490;SDS011;11412;50.802;4.350;2022-10-20T03:34:53;11.60;;;7.32;;
22490;SDS011;11412;50.802;4.350;2022-10-20T03:37:18;7.80;;;7.03;;
22490;SDS011;11412;50.802;4.350;2022-10-20T03:39:44;14.45;;;8.32;;
22490;SDS011;11412;50.802;4.350;2022-10-20T03:42:10;13.77;;;7.63;;
22490;SDS011;11412;50.802;4.350;2022-10-20T03:44:35;14.27;;;8.18;;
22490;SDS011;11412;50.802;4.350;2022-10-20T03:47:01;12.00;;;7.03;;
22490;SDS011;11412;50.802;4.350;2022-10-20T03:49:26;11.85;;;8.45;;
22490;SDS011;11412;50.802;4.350;2022-10-20T03:51:52;11.43;;;8.50;;
22490;SDS011;11412;50.802;4.350;2022-10-20T03:54:18;11.23;;;8.45;;
22490;SDS011;11412;50.802;4.350;2022-10-20T03:56:43;11.45;;;7.75;;
22490;SDS011;11412;50.802;4.350;2022-10-20T03:59:11;11.20;;;8.68;;
22490;SDS011;11412;50.802;4.350;2022-10-20T04:01:36;11.48;;;8.32;;
22490;SDS011;11412;50.802;4.350;2022-10-20T04:04:02;14.40;;;8.45;;
22490;SDS011;11412;50.802;4.350;2022-10-20T04:06:28;12.65;;;8.60;;
22490;SDS011;11412;50.802;4.350;2022-10-20T04:08:53;10.02;;;7.82;;
22490;SDS011;11412;50.802;4.350;2022-10-20T04:11:19;15.25;;;7.63;;
22490;SDS011;11412;50.802;4.350;2022-10-20T04:13:45;12.35;;;7.82;;
22490;SDS011;11412;50.802;4.350;2022-10-20T04:16:10;12.32;;;8.68;;
22490;SDS011;11412;50.802;4.350;2022-10-20T04:18:36;10.25;;;7.63;;
22490;SDS011;11412;50.802;4.350;2022-10-20T04:21:02;12.90;;;7.65;;
22490;SDS011;11412;50.802;4.350;2022-10-20T04:23:28;9.60;;;7.90;;
22490;SDS011;11412;50.802;4.350;2022-10-20T04:25:53;14.93;;;7.75;;
22490;SDS011;11412;50.802;4.350;2022-10-20T04:28:19;9.88;;;7.70;;
22490;SDS011;11412;50.802;4.350;2022-10-20T04:30:45;12.18;;;7.88;;
22490;SDS011;11412;50.802;4.350;2022-10-20T04:33:11;13.30;;;8.90;;
22490;SDS011;11412;50.802;4.350;2022-10-20T04:35:38;10.05;;;7.28;;
22490;SDS011;11412;50.802;4.350;2022-10-20T04:38:03;8.77;;;7.93;;
22490;SDS011;11412;50.802;4.350;2022-10-20T04:40:29;12.30;;;7.70;;
22490;SDS011;11412;50.802;4.350;2022-10-20T04:42:57;12.18;;;7.55;;
22490;SDS011;11412;50.802;4.350;2022-10-20T04:45:24;9.35;;;7.18;;
22490;SDS011;11412;50.802;4.350;2022-10-20T04:47:50;9.93;;;7.35;;
22490;SDS011;11412;50.802;4.350;2022-10-20T04:50:15;10.25;;;7.32;;
22490;SDS011;11412;50.802;4.350;2022-10-20T04:52:41;9.88;;;7.03;;
22490;SDS011;11412;50.802;4.350;2022-10-20T04:55:07;13.20;;;7.32;;
22490;SDS011;11412;50.802;4.350;2022-10-20T04:57:33;11.25;;;6.78;;
22490;SDS011;11412;50.802;4.350;2022-10-20T04:59:58;8.38;;;6.82;;
22490;SDS011;11412;50.802;4.350;2022-10-20T05:02:24;9.40;;;6.40;;
22490;SDS011;11412;50.802;4.350;2022-10-20T05:04:49;11.65;;;6.65;;
22490;SDS011;11412;50.802;4.350;2022-10-20T05:07:15;9.98;;;6.85;;
22490;SDS011;11412;50.802;4.350;2022-10-20T05:09:41;16.02;;;6.75;;
22490;SDS011;11412;50.802;4.350;2022-10-20T05:12:06;13.75;;;6.53;;
22490;SDS011;11412;50.802;4.350;2022-10-20T05:14:32;9.50;;;5.95;;
22490;SDS011;11412;50.802;4.350;2022-10-20T05:16:57;7.72;;;6.70;;
22490;SDS011;11412;50.802;4.350;2022-10-20T05:19:23;10.10;;;6.40;;
22490;SDS011;11412;50.802;4.350;2022-10-20T05:21:49;8.30;;;6.13;;
22490;SDS011;11412;50.802;4.350;2022-10-20T05:24:16;9.40;;;6.55;;
22490;SDS011;11412;50.802;4.350;2022-10-20T05:26:42;8.77;;;5.85;;
22490;SDS011;11412;50.802;4.350;2022-10-20T05:29:09;7.57;;;6.43;;
22490;SDS011;11412;50.802;4.350;2022-10-20T05:31:39;9.68;;;6.55;;
22490;SDS011;11412;50.802;4.350;2022-10-20T05:34:06;9.63;;;5.88;;
22490;SDS011;11412;50.802;4.350;2022-10-20T05:36:32;8.13;;;5.88;;
22490;SDS011;11412;50.802;4.350;2022-10-20T05:38:58;10.50;;;6.82;;
22490;SDS011;11412;50.802;4.350;2022-10-20T05:41:24;10.55;;;6.00;;
22490;SDS011;11412;50.802;4.350;2022-10-20T05:43:55;7.78;;;6.07;;
22490;SDS011;11412;50.802;4.350;2022-10-20T05:46:23;15.38;;;6.13;;
22490;SDS011;11412;50.802;4.350;2022-10-20T05:48:54;7.50;;;6.15;;
22490;SDS011;11412;50.802;4.350;2022-10-20T05:51:22;9.02;;;6.28;;
22490;SDS011;11412;50.802;4.350;2022-10-20T05:53:50;10.93;;;5.95;;
22490;SDS011;11412;50.802;4.350;2022-10-20T05:56:17;13.98;;;5.93;;
22490;SDS011;11412;50.802;4.350;2022-10-20T05:58:44;7.82;;;5.47;;
22490;SDS011;11412;50.802;4.350;2022-10-20T06:03:50;10.20;;;5.80;;
22490;SDS011;11412;50.802;4.350;2022-10-20T06:06:21;12.82;;;5.72;;
22490;SDS011;11412;50.802;4.350;2022-10-20T06:08:52;8.32;;;5.57;;
22490;SDS011;11412;50.802;4.350;2022-10-20T06:11:18;8.82;;;5.38;;
22490;SDS011;11412;50.802;4.350;2022-10-20T06:13:44;8.13;;;6.20;;
22490;SDS011;11412;50.802;4.350;2022-10-20T06:16:11;6.22;;;5.45;;
22490;SDS011;11412;50.802;4.350;2022-10-20T06:18:38;7.32;;;5.43;;
22490;SDS011;11412;50.802;4.350;2022-10-20T06:21:21;5.40;;;4.90;;
22490;SDS011;11412;50.802;4.350;2022-10-20T06:23:51;12.45;;;5.93;;
22490;SDS011;11412;50.802;4.350;2022-10-20T06:26:24;10.20;;;6.20;;
22490;SDS011;11412;50.802;4.350;2022-10-20T06:28:54;8.07;;;5.28;;
22490;SDS011;11412;50.802;4.350;2022-10-20T06:31:21;10.80;;;5.88;;
22490;SDS011;11412;50.802;4.350;2022-10-20T06:33:49;10.10;;;5.43;;
22490;SDS011;11412;50.802;4.350;2022-10-20T06:36:15;8.60;;;5.28;;
22490;SDS011;11412;50.802;4.350;2022-10-20T06:38:42;13.00;;;5.90;;
22490;SDS011;11412;50.802;4.350;2022-10-20T06:41:09;12.25;;;5.95;;
22490;SDS011;11412;50.802;4.350;2022-10-20T06:43:36;12.45;;;5.82;;
22490;SDS011;11412;50.802;4.350;2022-10-20T06:46:03;9.55;;;6.28;;
22490;SDS011;11412;50.802;4.350;2022-10-20T06:48:32;8.88;;;6.22;;
22490;SDS011;11412;50.802;4.350;2022-10-20T06:51:02;10.00;;;5.50;;
22490;SDS011;11412;50.802;4.350;2022-10-20T06:53:30;12.57;;;6.00;;
22490;SDS011;11412;50.802;4.350;2022-10-20T06:55:56;7.80;;;5.78;;
22490;SDS011;11412;50.802;4.350;2022-10-20T06:58:28;12.95;;;5.40;;
22490;SDS011;11412;50.802;4.350;2022-10-20T07:00:57;10.40;;;5.45;;
22490;SDS011;11412;50.802;4.350;2022-10-20T07:03:23;6.88;;;5.78;;
22490;SDS011;11412;50.802;4.350;2022-10-20T07:05:49;5.90;;;5.30;;
22490;SDS011;11412;50.802;4.350;2022-10-20T07:08:15;9.38;;;5.60;;
22490;SDS011;11412;50.802;4.350;2022-10-20T07:10:41;9.77;;;5.70;;
22490;SDS011;11412;50.802;4.350;2022-10-20T07:13:06;16.23;;;6.10;;
22490;SDS011;11412;50.802;4.350;2022-10-20T07:15:32;7.57;;;5.55;;
22490;SDS011;11412;50.802;4.350;2022-10-20T07:17:57;11.38;;;6.20;;
22490;SDS011;11412;50.802;4.350;2022-10-20T07:20:23;9.73;;;5.68;;
22490;SDS011;11412;50.802;4.350;2022-10-20T07:22:49;7.75;;;5.78;;
22490;SDS011;11412;50.802;4.350;2022-10-20T07:25:14;9.40;;;6.07;;
22490;SDS011;11412;50.802;4.350;2022-10-20T07:27:40;7.35;;;6.40;;
22490;SDS011;11412;50.802;4.350;2022-10-20T07:30:06;10.00;;;5.78;;
22490;SDS011;11412;50.802;4.350;2022-10-20T07:32:32;13.55;;;6.57;;
22490;SDS011;11412;50.802;4.350;2022-10-20T07:34:58;9.45;;;6.57;;
22490;SDS011;11412;50.802;4.350;2022-10-20T07:37:24;10.32;;;5.75;;
22490;SDS011;11412;50.802;4.350;2022-10-20T07:39:49;10.85;;;6.10;;
22490;SDS011;11412;50.802;4.350;2022-10-20T07:42:15;8.93;;;5.35;;
22490;SDS011;11412;50.802;4.350;2022-10-20T07:44:40;14.10;;;5.90;;
22490;SDS011;11412;50.802;4.350;2022-10-20T07:47:06;13.10;;;6.65;;
22490;SDS011;11412;50.802;4.350;2022-10-20T07:49:32;9.80;;;6.72;;
22490;SDS011;11412;50.802;4.350;2022-10-20T07:51:57;10.90;;;6.28;;
22490;SDS011;11412;50.802;4.350;2022-10-20T07:54:23;9.90;;;6.30;;
22490;SDS011;11412;50.802;4.350;2022-10-20T07:56:49;8.57;;;6.55;;
22490;SDS011;11412;50.802;4.350;2022-10-20T07:59:14;11.00;;;6.30;;
22490;SDS011;11412;50.802;4.350;2022-10-20T08:01:40;12.00;;;6.53;;
22490;SDS011;11412;50.802;4.350;2022-10-20T08:04:06;13.98;;;6.15;;
22490;SDS011;11412;50.802;4.350;2022-10-20T08:06:32;13.00;;;6.85;;
22490;SDS011;11412;50.802;4.350;2022-10-20T08:08:58;8.93;;;6.45;;
22490;SDS011;11412;50.802;4.350;2022-10-20T08:11:24;13.70;;;6.70;;
22490;SDS011;11412;50.802;4.350;2022-10-20T08:13:50;11.10;;;6.22;;
22490;SDS011;11412;50.802;4.350;2022-10-20T08:16:16;12.65;;;6.45;;
22490;SDS011;11412;50.802;4.350;2022-10-20T08:18:42;14.30;;;6.85;;
22490;SDS011;11412;50.802;4.350;2022-10-20T08:21:15;12.25;;;6.45;;
22490;SDS011;11412;50.802;4.350;2022-10-20T08:23:43;16.90;;;7.40;;
22490;SDS011;11412;50.802;4.350;2022-10-20T08:26:11;9.35;;;6.65;;
22490;SDS011;11412;50.802;4.350;2022-10-20T08:28:37;10.90;;;6.63;;
22490;SDS011;11412;50.802;4.350;2022-10-20T08:31:04;17.10;;;6.95;;
22490;SDS011;11412;50.802;4.350;2022-10-20T08:33:31;11.82;;;6.53;;
22490;SDS011;11412;50.802;4.350;2022-10-20T08:36:03;13.60;;;6.70;;
22490;SDS011;11412;50.802;4.350;2022-10-20T08:38:31;13.57;;;7.53;;
22490;SDS011;11412;50.802;4.350;2022-10-20T08:40:57;17.48;;;7.57;;
22490;SDS011;11412;50.802;4.350;2022-10-20T08:43:24;14.05;;;7.40;;
22490;SDS011;11412;50.802;4.350;2022-10-20T08:45:50;17.60;;;7.43;;
22490;SDS011;11412;50.802;4.350;2022-10-20T08:48:20;14.52;;;7.30;;
22490;SDS011;11412;50.802;4.350;2022-10-20T08:50:50;31.90;;;9.48;;
22490;SDS011;11412;50.802;4.350;2022-10-20T08:53:17;12.27;;;7.88;;
22490;SDS011;11412;50.802;4.350;2022-10-20T08:55:47;13.85;;;7.75;;
22490;SDS011;11412;50.802;4.350;2022-10-20T08:58:15;12.07;;;7.47;;
22490;SDS011;11412;50.802;4.350;2022-10-20T09:00:43;11.93;;;7.65;;
22490;SDS011;11412;50.802;4.350;2022-10-20T09:03:15;11.82;;;8.55;;
22490;SDS011;11412;50.802;4.350;2022-10-20T09:08:13;13.77;;;8.13;;
22490;SDS011;11412;50.802;4.350;2022-10-20T09:10:40;13.13;;;8.35;;
22490;SDS011;11412;50.802;4.350;2022-10-20T09:15:49;15.40;;;8.63;;
22490;SDS011;11412;50.802;4.350;2022-10-20T09:18:18;17.70;;;8.98;;
22490;SDS011;11412;50.802;4.350;2022-10-20T09:20:46;11.88;;;8.95;;
22490;SDS011;11412;50.802;4.350;2022-10-20T09:23:27;11.65;;;8.70;;
22490;SDS011;11412;50.802;4.350;2022-10-20T09:26:09;13.85;;;9.38;;
22490;SDS011;11412;50.802;4.350;2022-10-20T09:28:45;16.42;;;9.05;;
22490;SDS011;11412;50.802;4.350;2022-10-20T09:31:22;17.08;;;8.35;;
22490;SDS011;11412;50.802;4.350;2022-10-20T09:33:57;14.47;;;9.70;;
22490;SDS011;11412;50.802;4.350;2022-10-20T09:36:22;15.48;;;8.90;;
22490;SDS011;11412;50.802;4.350;2022-10-20T09:38:54;13.52;;;8.95;;
22490;SDS011;11412;50.802;4.350;2022-10-20T09:41:22;14.18;;;8.63;;
22490;SDS011;11412;50.802;4.350;2022-10-20T09:43:54;14.65;;;8.93;;
22490;SDS011;11412;50.802;4.350;2022-10-20T09:46:37;17.10;;;8.23;;
22490;SDS011;11412;50.802;4.350;2022-10-20T09:49:10;13.93;;;8.10;;
22490;SDS011;11412;50.802;4.350;2022-10-20T09:51:52;12.63;;;7.60;;
22490;SDS011;11412;50.802;4.350;2022-10-20T09:54:18;10.98;;;8.27;;
22490;SDS011;11412;50.802;4.350;2022-10-20T09:56:46;16.90;;;8.68;;
22490;SDS011;11412;50.802;4.350;2022-10-20T10:04:40;17.88;;;8.48;;
22490;SDS011;11412;50.802;4.350;2022-10-20T10:07:27;14.55;;;8.23;;
22490;SDS011;11412;50.802;4.350;2022-10-20T10:12:51;11.10;;;7.63;;
22490;SDS011;11412;50.802;4.350;2022-10-20T10:17:46;14.85;;;7.18;;
22490;SDS011;11412;50.802;4.350;2022-10-20T10:22:40;11.32;;;6.88;;
22490;SDS011;11412;50.802;4.350;2022-10-20T10:25:11;11.30;;;6.50;;
22490;SDS011;11412;50.802;4.350;2022-10-20T10:27:58;13.27;;;7.03;;
22490;SDS011;11412;50.802;4.350;2022-10-20T10:30:31;9.98;;;7.10;;
22490;SDS011;11412;50.802;4.350;2022-10-20T10:32:58;12.30;;;8.32;;
22490;SDS011;11412;50.802;4.350;2022-10-20T10:38:04;15.30;;;7.20;;
22490;SDS011;11412;50.802;4.350;2022-10-20T10:45:56;9.80;;;6.82;;
22490;SDS011;11412;50.802;4.350;2022-10-20T10:51:19;11.70;;;7.03;;
22490;SDS011;11412;50.802;4.350;2022-10-20T10:56:46;13.65;;;7.97;;
22490;SDS011;11412;50.802;4.350;2022-10-20T10:59:21;13.43;;;7.30;;
22490;SDS011;11412;50.802;4.350;2022-10-20T11:27:03;10.88;;;5.80;;
22490;SDS011;11412;50.802;4.350;2022-10-20T11:29:36;11.55;;;4.90;;
22490;SDS011;11412;50.802;4.350;2022-10-20T11:32:18;9.73;;;4.85;;
22490;SDS011;11412;50.802;4.350;2022-10-20T11:37:43;8.48;;;4.85;;
22490;SDS011;11412;50.802;4.350;2022-10-20T11:40:29;13.45;;;4.85;;
22490;SDS011;11412;50.802;4.350;2022-10-20T11:46:04;9.77;;;4.15;;
22490;SDS011;11412;50.802;4.350;2022-10-20T11:59:53;10.38;;;3.95;;
22490;SDS011;11412;50.802;4.350;2022-10-20T12:05:16;8.77;;;3.45;;
22490;SDS011;11412;50.802;4.350;2022-10-20T12:08:07;27.63;;;15.32;;
22490;SDS011;11412;50.802;4.350;2022-10-20T12:11:05;7.85;;;4.13;;
22490;SDS011;11412;50.802;4.350;2022-10-20T12:19:18;6.68;;;3.22;;
22490;SDS011;11412;50.802;4.350;2022-10-20T12:21:55;6.25;;;3.05;;
22490;SDS011;11412;50.802;4.350;2022-10-20T12:24:28;6.00;;;2.70;;
22490;SDS011;11412;50.802;4.350;2022-10-20T12:34:58;6.93;;;2.90;;
22490;SDS011;11412;50.802;4.350;2022-10-20T12:37:26;9.55;;;3.10;;
22490;SDS011;11412;50.802;4.350;2022-10-20T12:42:35;4.07;;;2.60;;
22490;SDS011;11412;50.802;4.350;2022-10-20T12:45:04;9.48;;;2.30;;
22490;SDS011;11412;50.802;4.350;2022-10-20T12:47:33;4.28;;;1.80;;
22490;SDS011;11412;50.802;4.350;2022-10-20T12:52:33;5.65;;;2.30;;
22490;SDS011;11412;50.802;4.350;2022-10-20T12:55:03;3.78;;;1.90;;
22490;SDS011;11412;50.802;4.350;2022-10-20T12:57:42;3.53;;;2.17;;
22490;SDS011;11412;50.802;4.350;2022-10-20T13:15:34;5.07;;;1.67;;
22490;SDS011;11412;50.802;4.350;2022-10-20T13:20:35;6.05;;;1.83;;
22490;SDS011;11412;50.802;4.350;2022-10-20T13:23:02;3.72;;;2.08;;
22490;SDS011;11412;50.802;4.350;2022-10-20T13:25:38;4.70;;;2.10;;
22490;SDS011;11412;50.802;4.350;2022-10-20T13:30:36;11.05;;;2.60;;
22490;SDS011;11412;50.802;4.350;2022-10-20T13:33:21;6.03;;;2.35;;
22490;SDS011;11412;50.802;4.350;2022-10-20T13:41:22;4.20;;;1.90;;
22490;SDS011;11412;50.802;4.350;2022-10-20T13:44:15;6.50;;;2.45;;
22490;SDS011;11412;50.802;4.350;2022-10-20T13:47:27;4.50;;;2.55;;
22490;SDS011;11412;50.802;4.350;2022-10-20T13:50:21;5.05;;;2.15;;
22490;SDS011;11412;50.802;4.350;2022-10-20T13:53:00;8.15;;;2.47;;
22490;SDS011;11412;50.802;4.350;2022-10-20T13:55:30;9.25;;;2.25;;
22490;SDS011;11412;50.802;4.350;2022-10-20T13:58:33;10.63;;;1.98;;
22490;SDS011;11412;50.802;4.350;2022-10-20T14:03:43;6.03;;;2.22;;
22490;SDS011;11412;50.802;4.350;2022-10-20T14:08:52;8.65;;;2.22;;
22490;SDS011;11412;50.802;4.350;2022-10-20T14:11:18;7.32;;;2.50;;
22490;SDS011;11412;50.802;4.350;2022-10-20T14:13:44;5.60;;;2.05;;
22490;SDS011;11412;50.802;4.350;2022-10-20T14:16:18;3.28;;;2.10;;
22490;SDS011;11412;50.802;4.350;2022-10-20T14:19:03;7.10;;;2.33;;
22490;SDS011;11412;50.802;4.350;2022-10-20T14:21:29;6.03;;;1.92;;
22490;SDS011;11412;50.802;4.350;2022-10-20T14:24:04;5.20;;;2.28;;
22490;SDS011;11412;50.802;4.350;2022-10-20T14:26:33;4.18;;;2.40;;
22490;SDS011;11412;50.802;4.350;2022-10-20T14:29:00;4.22;;;2.08;;
22490;SDS011;11412;50.802;4.350;2022-10-20T14:31:27;5.45;;;2.20;;
22490;SDS011;11412;50.802;4.350;2022-10-20T14:33:53;5.82;;;2.28;;
22490;SDS011;11412;50.802;4.350;2022-10-20T14:36:19;7.18;;;2.50;;
22490;SDS011;11412;50.802;4.350;2022-10-20T14:38:52;4.53;;;2.00;;
22490;SDS011;11412;50.802;4.350;2022-10-20T14:41:37;8.70;;;2.05;;
22490;SDS011;11412;50.802;4.350;2022-10-20T14:44:03;5.68;;;2.15;;
22490;SDS011;11412;50.802;4.350;2022-10-20T14:46:36;5.60;;;1.80;;
22490;SDS011;11412;50.802;4.350;2022-10-20T14:49:12;2.65;;;1.63;;
22490;SDS011;11412;50.802;4.350;2022-10-20T14:51:54;4.88;;;1.60;;
22490;SDS011;11412;50.802;4.350;2022-10-20T14:54:22;6.45;;;2.13;;
22490;SDS011;11412;50.802;4.350;2022-10-20T14:56:56;3.85;;;1.80;;
22490;SDS011;11412;50.802;4.350;2022-10-20T14:59:49;5.85;;;1.75;;
22490;SDS011;11412;50.802;4.350;2022-10-20T15:02:32;7.63;;;1.88;;
22490;SDS011;11412;50.802;4.350;2022-10-20T15:07:56;4.68;;;1.55;;
22490;SDS011;11412;50.802;4.350;2022-10-20T15:10:25;11.35;;;3.03;;
22490;SDS011;11412;50.802;4.350;2022-10-20T15:12:54;11.65;;;2.05;;
22490;SDS011;11412;50.802;4.350;2022-10-20T15:17:50;5.40;;;1.83;;
22490;SDS011;11412;50.802;4.350;2022-10-20T15:30:45;3.85;;;1.60;;
22490;SDS011;11412;50.802;4.350;2022-10-20T15:33:10;2.88;;;1.83;;
22490;SDS011;11412;50.802;4.350;2022-10-20T15:35:37;4.60;;;2.33;;
22490;SDS011;11412;50.802;4.350;2022-10-20T15:38:08;4.90;;;1.83;;
22490;SDS011;11412;50.802;4.350;2022-10-20T15:40:34;5.22;;;1.83;;
22490;SDS011;11412;50.802;4.350;2022-10-20T15:43:00;7.28;;;2.00;;
22490;SDS011;11412;50.802;4.350;2022-10-20T15:45:25;6.35;;;2.03;;
22490;SDS011;11412;50.802;4.350;2022-10-20T15:47:54;14.93;;;2.17;;
22490;SDS011;11412;50.802;4.350;2022-10-20T15:50:20;2.03;;;1.50;;
22490;SDS011;11412;50.802;4.350;2022-10-20T15:52:46;9.77;;;1.77;;
22490;SDS011;11412;50.802;4.350;2022-10-20T15:55:16;3.35;;;1.40;;
22490;SDS011;11412;50.802;4.350;2022-10-20T15:57:47;2.13;;;1.50;;
22490;SDS011;11412;50.802;4.350;2022-10-20T16:00:14;4.65;;;1.70;;
22490;SDS011;11412;50.802;4.350;2022-10-20T16:02:40;5.75;;;1.80;;
22490;SDS011;11412;50.802;4.350;2022-10-20T16:05:06;4.72;;;1.88;;
22490;SDS011;11412;50.802;4.350;2022-10-20T16:07:31;7.82;;;1.88;;
22490;SDS011;11412;50.802;4.350;2022-10-20T16:09:57;6.85;;;1.40;;
22490;SDS011;11412;50.802;4.350;2022-10-20T16:12:23;6.28;;;2.35;;
22490;SDS011;11412;50.802;4.350;2022-10-20T16:14:50;3.25;;;1.95;;
22490;SDS011;11412;50.802;4.350;2022-10-20T16:17:17;6.68;;;2.35;;
22490;SDS011;11412;50.802;4.350;2022-10-20T16:19:42;9.50;;;2.30;;
22490;SDS011;11412;50.802;4.350;2022-10-20T16:22:08;4.40;;;2.30;;
22490;SDS011;11412;50.802;4.350;2022-10-20T16:24:34;4.53;;;1.90;;
22490;SDS011;11412;50.802;4.350;2022-10-20T16:26:59;7.07;;;2.33;;
22490;SDS011;11412;50.802;4.350;2022-10-20T16:29:27;8.32;;;3.00;;
22490;SDS011;11412;50.802;4.350;2022-10-20T16:31:53;6.78;;;2.15;;
22490;SDS011;11412;50.802;4.350;2022-10-20T16:34:19;8.00;;;2.50;;
22490;SDS011;11412;50.802;4.350;2022-10-20T16:36:45;6.97;;;2.40;;
22490;SDS011;11412;50.802;4.350;2022-10-20T16:39:13;8.38;;;2.50;;
22490;SDS011;11412;50.802;4.350;2022-10-20T16:41:41;4.45;;;2.50;;
22490;SDS011;11412;50.802;4.350;2022-10-20T16:44:07;9.80;;;2.70;;
22490;SDS011;11412;50.802;4.350;2022-10-20T16:46:32;4.22;;;2.50;;
22490;SDS011;11412;50.802;4.350;2022-10-20T16:48:58;8.75;;;2.70;;
22490;SDS011;11412;50.802;4.350;2022-10-20T16:51:24;8.82;;;2.63;;
22490;SDS011;11412;50.802;4.350;2022-10-20T16:53:49;7.10;;;3.10;;
22490;SDS011;11412;50.802;4.350;2022-10-20T16:56:15;11.23;;;3.20;;
22490;SDS011;11412;50.802;4.350;2022-10-20T16:58:41;6.05;;;2.90;;
22490;SDS011;11412;50.802;4.350;2022-10-20T17:01:09;7.50;;;3.10;;
22490;SDS011;11412;50.802;4.350;2022-10-20T17:03:40;12.25;;;3.53;;
22490;SDS011;11412;50.802;4.350;2022-10-20T17:06:07;12.13;;;3.28;;
22490;SDS011;11412;50.802;4.350;2022-10-20T17:08:33;7.20;;;2.70;;
22490;SDS011;11412;50.802;4.350;2022-10-20T17:11:04;7.88;;;2.63;;
22490;SDS011;11412;50.802;4.350;2022-10-20T17:13:35;14.38;;;2.90;;
22490;SDS011;11412;50.802;4.350;2022-10-20T17:16:44;8.23;;;2.70;;
22490;SDS011;11412;50.802;4.350;2022-10-20T17:18:55;5.82;;;2.90;;
22490;SDS011;11412;50.802;4.350;2022-10-20T17:21:22;8.02;;;2.95;;
22490;SDS011;11412;50.802;4.350;2022-10-20T17:23:48;10.60;;;2.63;;
22490;SDS011;11412;50.802;4.350;2022-10-20T17:26:18;7.03;;;2.70;;
22490;SDS011;11412;50.802;4.350;2022-10-20T17:28:46;5.80;;;2.45;;
22490;SDS011;11412;50.802;4.350;2022-10-20T17:31:16;7.50;;;3.10;;
22490;SDS011;11412;50.802;4.350;2022-10-20T17:33:42;3.85;;;2.60;;
22490;SDS011;11412;50.802;4.350;2022-10-20T17:36:08;9.05;;;2.35;;
22490;SDS011;11412;50.802;4.350;2022-10-20T17:38:36;7.28;;;2.58;;
22490;SDS011;11412;50.802;4.350;2022-10-20T17:41:02;11.93;;;3.10;;
22490;SDS011;11412;50.802;4.350;2022-10-20T17:43:29;10.40;;;2.67;;
22490;SDS011;11412;50.802;4.350;2022-10-20T17:45:58;3.08;;;2.47;;
22490;SDS011;11412;50.802;4.350;2022-10-20T17:48:26;11.30;;;2.72;;
22490;SDS011;11412;50.802;4.350;2022-10-20T17:51:01;7.00;;;2.83;;
22490;SDS011;11412;50.802;4.350;2022-10-20T17:53:32;7.53;;;2.90;;
22490;SDS011;11412;50.802;4.350;2022-10-20T17:56:05;5.35;;;2.65;;